sensor_id;sensor_type;location;lat;lon;timestamp;temperature;humidity
1992;DHT22;997;48.448;8.924;2023-11-19T00:00:42;8.40;99.90
1992;DHT22;997;48.448;8.924;2023-11-19T00:03:08;8.40;99.90
1992;DHT22;997;48.448;8.924;2023-11-19T00:05:34;8.40;99.90
1992;DHT22;997;48.448;8.924;2023-11-19T00:07:59;8.40;99.90
1992;DHT22;997;48.448;8.924;2023-11-19T00:10:25;8.40;99.90
1992;DHT22;997;48.448;8.924;2023-11-19T00:12:51;8.40;99.90
1992;DHT22;997;48.448;8.924;2023-11-19T00:15:17;8.40;99.90
1992;DHT22;997;48.448;8.924;2023-11-19T00:17:47;8.40;99.90
1992;DHT22;997;48.448;8.924;2023-11-19T00:20:14;8.40;99.90
1992;DHT22;997;48.448;8.924;2023-11-19T00:22:41;8.40;99.90
1992;DHT22;997;48.448;8.924;2023-11-19T00:25:08;8.40;99.90
1992;DHT22;997;48.448;8.924;2023-11-19T00:27:34;8.40;99.90
1992;DHT22;997;48.448;8.924;2023-11-19T00:30:00;8.50;99.90
1992;DHT22;997;48.448;8.924;2023-11-19T00:32:25;8.50;99.90
1992;DHT22;997;48.448;8.924;2023-11-19T00:34:51;8.50;99.90
1992;DHT22;997;48.448;8.924;2023-11-19T00:37:17;8.50;99.90
1992;DHT22;997;48.448;8.924;2023-11-19T00:39:43;8.50;99.90
1992;DHT22;997;48.448;8.924;2023-11-19T00:42:12;8.50;99.90
1992;DHT22;997;48.448;8.924;2023-11-19T00:44:37;8.50;99.90
1992;DHT22;997;48.448;8.924;2023-11-19T00:47:03;8.60;99.90
1992;DHT22;997;48.448;8.924;2023-11-19T00:49:30;8.60;99.90
1992;DHT22;997;48.448;8.924;2023-11-19T00:51:58;8.70;99.90
1992;DHT22;997;48.448;8.924;2023-11-19T00:54:24;8.70;99.90
1992;DHT22;997;48.448;8.924;2023-11-19T00:56:52;8.70;99.90
1992;DHT22;997;48.448;8.924;2023-11-19T00:59:18;8.80;99.90
1992;DHT22;997;48.448;8.924;2023-11-19T01:01:43;8.80;99.90
1992;DHT22;997;48.448;8.924;2023-11-19T01:04:09;8.80;99.90
1992;DHT22;997;48.448;8.924;2023-11-19T01:06:35;8.80;99.90
1992;DHT22;997;48.448;8.924;2023-11-19T01:09:00;8.90;99.90
1992;DHT22;997;48.448;8.924;2023-11-19T01:11:26;8.80;99.90
1992;DHT22;997;48.448;8.924;2023-11-19T01:13:52;8.80;99.90
1992;DHT22;997;48.448;8.924;2023-11-19T01:16:18;8.80;99.90
1992;DHT22;997;48.448;8.924;2023-11-19T01:18:46;8.80;99.90
1992;DHT22;997;48.448;8.924;2023-11-19T01:21:12;8.90;99.90
1992;DHT22;997;48.448;8.924;2023-11-19T01:23:40;8.90;99.90
1992;DHT22;997;48.448;8.924;2023-11-19T01:26:08;8.90;99.90
1992;DHT22;997;48.448;8.924;2023-11-19T09:40:03;12.60;99.90
1992;DHT22;997;48.448;8.924;2023-11-19T09:42:29;12.60;99.90
1992;DHT22;997;48.448;8.924;2023-11-19T09:44:57;12.60;99.90
1992;DHT22;997;48.448;8.924;2023-11-19T09:47:25;12.70;99.90
1992;DHT22;997;48.448;8.924;2023-11-19T09:49:53;12.70;99.90
1992;DHT22;997;48.448;8.924;2023-11-19T09:52:19;12.80;99.90
1992;DHT22;997;48.448;8.924;2023-11-19T09:54:45;12.90;99.90
1992;DHT22;997;48.448;8.924;2023-11-19T09:57:11;12.90;99.90
1992;DHT22;997;48.448;8.924;2023-11-19T09:59:38;13.00;99.90
1992;DHT22;997;48.448;8.924;2023-11-19T10:02:06;13.10;99.90
1992;DHT22;997;48.448;8.924;2023-11-19T10:04:34;13.20;99.90
1992;DHT22;997;48.448;8.924;2023-11-19T10:07:01;13.20;99.90
1992;DHT22;997;48.448;8.924;2023-11-19T10:09:26;13.30;99.90
1992;DHT22;997;48.448;8.924;2023-11-19T10:11:52;13.40;99.90
1992;DHT22;997;48.448;8.924;2023-11-19T10:35:05;13.90;99.90
1992;DHT22;997;48.448;8.924;2023-11-19T10:37:32;14.00;99.90
1992;DHT22;997;48.448;8.924;2023-11-19T10:39:58;13.90;99.90
1992;DHT22;997;48.448;8.924;2023-11-19T10:42:23;13.90;99.90
1992;DHT22;997;48.448;8.924;2023-11-19T10:44:49;13.90;99.90
1992;DHT22;997;48.448;8.924;2023-11-19T10:47:15;13.80;99.90
1992;DHT22;997;48.448;8.924;2023-11-19T10:49:45;13.80;99.90
1992;DHT22;997;48.448;8.924;2023-11-19T11:57:08;14.10;99.90
1992;DHT22;997;48.448;8.924;2023-11-19T11:59:50;14.30;99.90
1992;DHT22;997;48.448;8.924;2023-11-19T12:02:17;14.30;99.90
1992;DHT22;997;48.448;8.924;2023-11-19T12:04:50;14.40;99.90
1992;DHT22;997;48.448;8.924;2023-11-19T12:07:23;14.50;99.90
1992;DHT22;997;48.448;8.924;2023-11-19T12:09:56;14.40;99.90
1992;DHT22;997;48.448;8.924;2023-11-19T12:12:31;14.40;99.90
1992;DHT22;997;48.448;8.924;2023-11-19T12:20:03;14.50;99.90
1992;DHT22;997;48.448;8.924;2023-11-19T12:22:31;14.60;99.90
1992;DHT22;997;48.448;8.924;2023-11-19T12:24:57;14.60;99.90
1992;DHT22;997;48.448;8.924;2023-11-19T12:27:23;14.50;99.90
1992;DHT22;997;48.448;8.924;2023-11-19T12:29:49;14.50;99.90
1992;DHT22;997;48.448;8.924;2023-11-19T12:32:15;14.40;99.90
1992;DHT22;997;48.448;8.924;2023-11-19T12:34:41;14.40;99.90
1992;DHT22;997;48.448;8.924;2023-11-19T12:37:08;14.40;99.90
1992;DHT22;997;48.448;8.924;2023-11-19T12:39:36;14.50;99.90
1992;DHT22;997;48.448;8.924;2023-11-19T12:42:02;14.70;99.90
1992;DHT22;997;48.448;8.924;2023-11-19T12:44:28;14.60;99.90
1992;DHT22;997;48.448;8.924;2023-11-19T12:47:14;14.50;99.90
1992;DHT22;997;48.448;8.924;2023-11-19T12:49:39;14.40;99.90
1992;DHT22;997;48.448;8.924;2023-11-19T12:52:12;14.40;99.90
1992;DHT22;997;48.448;8.924;2023-11-19T12:54:38;14.30;99.90
1992;DHT22;997;48.448;8.924;2023-11-19T12:57:05;14.20;99.90
1992;DHT22;997;48.448;8.924;2023-11-19T12:59:31;14.10;99.90
1992;DHT22;997;48.448;8.924;2023-11-19T13:02:00;14.10;99.90
1992;DHT22;997;48.448;8.924;2023-11-19T13:04:31;14.10;99.90
1992;DHT22;997;48.448;8.924;2023-11-19T13:07:00;14.10;99.90
1992;DHT22;997;48.448;8.924;2023-11-19T13:09:29;14.10;99.90
1992;DHT22;997;48.448;8.924;2023-11-19T13:11:55;14.20;99.90
1992;DHT22;997;48.448;8.924;2023-11-19T13:14:36;14.30;99.90
1992;DHT22;997;48.448;8.924;2023-11-19T13:17:03;14.40;99.90
1992;DHT22;997;48.448;8.924;2023-11-19T13:19:30;14.50;99.90
1992;DHT22;997;48.448;8.924;2023-11-19T13:21:55;14.60;99.90
1992;DHT22;997;48.448;8.924;2023-11-19T13:24:21;14.50;99.90
1992;DHT22;997;48.448;8.924;2023-11-19T13:26:47;14.50;99.90
1992;DHT22;997;48.448;8.924;2023-11-19T13:29:12;14.50;99.90
1992;DHT22;997;48.448;8.924;2023-11-19T13:31:38;14.60;99.90
1992;DHT22;997;48.448;8.924;2023-11-19T13:34:03;14.80;99.90
1992;DHT22;997;48.448;8.924;2023-11-19T13:36:30;14.80;99.90
1992;DHT22;997;48.448;8.924;2023-11-19T13:38:56;14.90;99.90
1992;DHT22;997;48.448;8.924;2023-11-19T13:41:25;14.90;99.90
1992;DHT22;997;48.448;8.924;2023-11-19T13:43:51;14.90;99.90
1992;DHT22;997;48.448;8.924;2023-11-19T13:46:17;15.00;99.90
1992;DHT22;997;48.448;8.924;2023-11-19T13:48:42;15.10;99.90
1992;DHT22;997;48.448;8.924;2023-11-19T13:51:08;15.00;99.90
1992;DHT22;997;48.448;8.924;2023-11-19T13:53:35;14.90;99.90
1992;DHT22;997;48.448;8.924;2023-11-19T13:56:01;14.90;99.90
1992;DHT22;997;48.448;8.924;2023-11-19T13:58:27;14.90;99.90
1992;DHT22;997;48.448;8.924;2023-11-19T14:00:52;15.00;99.90
1992;DHT22;997;48.448;8.924;2023-11-19T14:03:19;14.80;99.90
1992;DHT22;997;48.448;8.924;2023-11-19T14:05:45;14.80;99.90
1992;DHT22;997;48.448;8.924;2023-11-19T14:08:11;14.70;99.90
1992;DHT22;997;48.448;8.924;2023-11-19T14:10:37;14.70;99.90
1992;DHT22;997;48.448;8.924;2023-11-19T14:13:04;14.70;99.90
1992;DHT22;997;48.448;8.924;2023-11-19T14:15:31;14.70;99.90
1992;DHT22;997;48.448;8.924;2023-11-19T14:17:56;14.60;99.90
1992;DHT22;997;48.448;8.924;2023-11-19T14:20:22;14.60;99.90
1992;DHT22;997;48.448;8.924;2023-11-19T14:22:48;14.60;99.90
1992;DHT22;997;48.448;8.924;2023-11-19T14:25:15;14.60;99.90
1992;DHT22;997;48.448;8.924;2023-11-19T14:27:41;14.40;99.90
1992;DHT22;997;48.448;8.924;2023-11-19T14:30:08;14.30;99.90
1992;DHT22;997;48.448;8.924;2023-11-19T14:32:36;14.30;99.90
1992;DHT22;997;48.448;8.924;2023-11-19T14:35:03;14.30;99.90
1992;DHT22;997;48.448;8.924;2023-11-19T14:37:29;14.30;99.90
1992;DHT22;997;48.448;8.924;2023-11-19T14:39:56;14.40;99.90
1992;DHT22;997;48.448;8.924;2023-11-19T14:42:23;14.40;99.90
1992;DHT22;997;48.448;8.924;2023-11-19T14:44:51;14.40;99.90
1992;DHT22;997;48.448;8.924;2023-11-19T14:47:18;14.30;99.90
1992;DHT22;997;48.448;8.924;2023-11-19T14:49:44;14.20;99.90
1992;DHT22;997;48.448;8.924;2023-11-19T14:52:10;14.10;99.90
1992;DHT22;997;48.448;8.924;2023-11-19T14:54:36;14.10;99.90
1992;DHT22;997;48.448;8.924;2023-11-19T14:57:02;13.90;99.90
1992;DHT22;997;48.448;8.924;2023-11-19T14:59:28;13.90;99.90
1992;DHT22;997;48.448;8.924;2023-11-19T15:01:54;13.90;99.90
1992;DHT22;997;48.448;8.924;2023-11-19T15:04:20;14.00;99.90
1992;DHT22;997;48.448;8.924;2023-11-19T15:06:45;13.90;99.90
1992;DHT22;997;48.448;8.924;2023-11-19T15:09:11;13.90;99.90
1992;DHT22;997;48.448;8.924;2023-11-19T15:11:45;13.80;99.90
1992;DHT22;997;48.448;8.924;2023-11-19T15:14:15;13.80;99.90
1992;DHT22;997;48.448;8.924;2023-11-19T15:16:43;13.70;99.90
1992;DHT22;997;48.448;8.924;2023-11-19T15:19:08;13.60;99.90
1992;DHT22;997;48.448;8.924;2023-11-19T15:21:34;13.70;99.90
1992;DHT22;997;48.448;8.924;2023-11-19T15:24:00;13.80;99.90
1992;DHT22;997;48.448;8.924;2023-11-19T15:26:27;13.90;99.90
1992;DHT22;997;48.448;8.924;2023-11-19T15:28:53;13.70;99.90
1992;DHT22;997;48.448;8.924;2023-11-19T15:31:22;13.60;99.90
1992;DHT22;997;48.448;8.924;2023-11-19T15:33:48;13.50;99.90
1992;DHT22;997;48.448;8.924;2023-11-19T15:36:13;13.40;99.90
1992;DHT22;997;48.448;8.924;2023-11-19T15:38:40;13.40;99.90
1992;DHT22;997;48.448;8.924;2023-11-19T15:41:06;13.30;99.90
1992;DHT22;997;48.448;8.924;2023-11-19T15:43:33;13.40;99.90
1992;DHT22;997;48.448;8.924;2023-11-19T15:45:59;13.40;99.90
1992;DHT22;997;48.448;8.924;2023-11-19T15:48:24;13.20;99.90
1992;DHT22;997;48.448;8.924;2023-11-19T15:50:51;13.20;99.90
1992;DHT22;997;48.448;8.924;2023-11-19T15:53:17;13.10;99.90
1992;DHT22;997;48.448;8.924;2023-11-19T15:55:44;12.90;99.90
1992;DHT22;997;48.448;8.924;2023-11-19T15:58:10;12.90;99.90
1992;DHT22;997;48.448;8.924;2023-11-19T16:00:36;12.80;99.90
1992;DHT22;997;48.448;8.924;2023-11-19T16:03:02;12.80;99.90
1992;DHT22;997;48.448;8.924;2023-11-19T16:05:28;12.70;99.90
1992;DHT22;997;48.448;8.924;2023-11-19T16:07:54;12.70;99.90
1992;DHT22;997;48.448;8.924;2023-11-19T16:10:19;12.70;99.90
1992;DHT22;997;48.448;8.924;2023-11-19T16:12:46;12.60;99.90
1992;DHT22;997;48.448;8.924;2023-11-19T16:15:12;12.60;99.90
1992;DHT22;997;48.448;8.924;2023-11-19T16:17:40;12.60;99.90
1992;DHT22;997;48.448;8.924;2023-11-19T16:20:08;12.60;99.90
1992;DHT22;997;48.448;8.924;2023-11-19T16:22:39;12.50;99.90
1992;DHT22;997;48.448;8.924;2023-11-19T16:25:05;12.50;99.90
1992;DHT22;997;48.448;8.924;2023-11-19T16:27:31;12.40;99.90
1992;DHT22;997;48.448;8.924;2023-11-19T16:29:57;12.40;99.90
1992;DHT22;997;48.448;8.924;2023-11-19T16:32:24;12.40;99.90
1992;DHT22;997;48.448;8.924;2023-11-19T16:34:50;12.30;99.90
1992;DHT22;997;48.448;8.924;2023-11-19T16:37:16;12.20;99.90
1992;DHT22;997;48.448;8.924;2023-11-19T16:39:43;12.20;99.90
1992;DHT22;997;48.448;8.924;2023-11-19T16:42:09;12.10;99.90
1992;DHT22;997;48.448;8.924;2023-11-19T16:44:35;12.00;99.90
1992;DHT22;997;48.448;8.924;2023-11-19T16:47:01;12.00;99.90
1992;DHT22;997;48.448;8.924;2023-11-19T16:49:28;11.90;99.90
1992;DHT22;997;48.448;8.924;2023-11-19T16:51:54;12.00;99.90
1992;DHT22;997;48.448;8.924;2023-11-19T16:54:19;12.00;99.90
1992;DHT22;997;48.448;8.924;2023-11-19T16:56:45;12.10;99.90
1992;DHT22;997;48.448;8.924;2023-11-19T16:59:11;11.90;99.90
1992;DHT22;997;48.448;8.924;2023-11-19T17:01:36;11.80;99.90
1992;DHT22;997;48.448;8.924;2023-11-19T17:04:05;11.90;99.90
1992;DHT22;997;48.448;8.924;2023-11-19T17:06:33;11.90;99.90
1992;DHT22;997;48.448;8.924;2023-11-19T17:08:59;11.80;99.90
1992;DHT22;997;48.448;8.924;2023-11-19T17:11:25;11.80;99.90
1992;DHT22;997;48.448;8.924;2023-11-19T17:13:51;11.80;99.90
1992;DHT22;997;48.448;8.924;2023-11-19T17:16:17;11.70;99.90
1992;DHT22;997;48.448;8.924;2023-11-19T17:18:43;11.70;99.90
1992;DHT22;997;48.448;8.924;2023-11-19T17:21:09;11.60;99.90
1992;DHT22;997;48.448;8.924;2023-11-19T17:23:35;11.60;99.90
1992;DHT22;997;48.448;8.924;2023-11-19T17:26:01;11.50;99.90
1992;DHT22;997;48.448;8.924;2023-11-19T17:28:27;11.50;99.90
1992;DHT22;997;48.448;8.924;2023-11-19T17:30:53;11.60;99.90
1992;DHT22;997;48.448;8.924;2023-11-19T17:33:19;11.40;99.90
1992;DHT22;997;48.448;8.924;2023-11-19T17:35:45;11.40;99.90
1992;DHT22;997;48.448;8.924;2023-11-19T17:38:10;11.40;99.90
1992;DHT22;997;48.448;8.924;2023-11-19T17:40:36;11.40;99.90
1992;DHT22;997;48.448;8.924;2023-11-19T17:43:02;11.50;99.90
1992;DHT22;997;48.448;8.924;2023-11-19T17:45:28;11.50;99.90
1992;DHT22;997;48.448;8.924;2023-11-19T17:47:54;11.40;99.90
1992;DHT22;997;48.448;8.924;2023-11-19T17:50:20;11.40;99.90
1992;DHT22;997;48.448;8.924;2023-11-19T17:52:47;11.40;99.90
1992;DHT22;997;48.448;8.924;2023-11-19T17:55:12;11.30;99.90
1992;DHT22;997;48.448;8.924;2023-11-19T17:57:42;11.30;99.90
1992;DHT22;997;48.448;8.924;2023-11-19T18:00:09;11.30;99.90
1992;DHT22;997;48.448;8.924;2023-11-19T18:02:45;11.20;99.90
1992;DHT22;997;48.448;8.924;2023-11-19T18:05:14;11.10;99.90
1992;DHT22;997;48.448;8.924;2023-11-19T18:07:41;11.10;99.90
1992;DHT22;997;48.448;8.924;2023-11-19T18:10:08;11.20;99.90
1992;DHT22;997;48.448;8.924;2023-11-19T18:12:34;11.30;99.90
1992;DHT22;997;48.448;8.924;2023-11-19T18:15:02;11.30;99.90
1992;DHT22;997;48.448;8.924;2023-11-19T18:17:28;11.20;99.90
1992;DHT22;997;48.448;8.924;2023-11-19T18:19:54;11.20;99.90
1992;DHT22;997;48.448;8.924;2023-11-19T18:22:20;11.20;99.90
1992;DHT22;997;48.448;8.924;2023-11-19T18:24:45;11.10;99.90
1992;DHT22;997;48.448;8.924;2023-11-19T18:27:11;11.10;99.90
1992;DHT22;997;48.448;8.924;2023-11-19T18:29:37;11.10;99.90
1992;DHT22;997;48.448;8.924;2023-11-19T18:32:03;11.10;99.90
1992;DHT22;997;48.448;8.924;2023-11-19T18:34:29;11.10;99.90
1992;DHT22;997;48.448;8.924;2023-11-19T18:36:55;11.20;99.90
1992;DHT22;997;48.448;8.924;2023-11-19T18:39:20;11.10;99.90
1992;DHT22;997;48.448;8.924;2023-11-19T18:41:46;11.10;99.90
1992;DHT22;997;48.448;8.924;2023-11-19T18:44:12;11.20;99.90
1992;DHT22;997;48.448;8.924;2023-11-19T18:46:39;11.20;99.90
1992;DHT22;997;48.448;8.924;2023-11-19T18:49:05;11.10;99.90
1992;DHT22;997;48.448;8.924;2023-11-19T18:51:31;11.00;99.90
1992;DHT22;997;48.448;8.924;2023-11-19T18:53:57;11.00;99.90
1992;DHT22;997;48.448;8.924;2023-11-19T18:56:23;11.10;99.90
1992;DHT22;997;48.448;8.924;2023-11-19T18:58:49;11.10;99.90
1992;DHT22;997;48.448;8.924;2023-11-19T19:01:15;11.00;99.90
1992;DHT22;997;48.448;8.924;2023-11-19T19:03:43;11.00;99.90
1992;DHT22;997;48.448;8.924;2023-11-19T19:06:09;11.00;99.90
1992;DHT22;997;48.448;8.924;2023-11-19T19:08:35;10.90;99.90
1992;DHT22;997;48.448;8.924;2023-11-19T19:11:01;10.90;99.90
1992;DHT22;997;48.448;8.924;2023-11-19T19:13:27;10.90;99.90
1992;DHT22;997;48.448;8.924;2023-11-19T19:15:53;11.00;99.90
1992;DHT22;997;48.448;8.924;2023-11-19T19:18:19;11.00;99.90
1992;DHT22;997;48.448;8.924;2023-11-19T19:20:45;11.00;99.90
1992;DHT22;997;48.448;8.924;2023-11-19T19:23:11;11.00;99.90
1992;DHT22;997;48.448;8.924;2023-11-19T19:25:37;11.10;99.90
1992;DHT22;997;48.448;8.924;2023-11-19T19:28:03;11.10;99.90
1992;DHT22;997;48.448;8.924;2023-11-19T19:30:31;11.10;99.90
1992;DHT22;997;48.448;8.924;2023-11-19T19:32:57;11.10;99.90
1992;DHT22;997;48.448;8.924;2023-11-19T19:35:23;11.10;99.90
1992;DHT22;997;48.448;8.924;2023-11-19T19:37:54;11.00;99.90
1992;DHT22;997;48.448;8.924;2023-11-19T19:40:20;10.90;99.90
1992;DHT22;997;48.448;8.924;2023-11-19T19:42:45;10.90;99.90
1992;DHT22;997;48.448;8.924;2023-11-19T19:45:11;10.90;99.90
1992;DHT22;997;48.448;8.924;2023-11-19T19:47:39;11.00;99.90
1992;DHT22;997;48.448;8.924;2023-11-19T19:50:06;10.90;99.90
1992;DHT22;997;48.448;8.924;2023-11-19T19:52:42;11.00;99.90
1992;DHT22;997;48.448;8.924;2023-11-19T19:55:08;11.00;99.90
1992;DHT22;997;48.448;8.924;2023-11-19T19:57:34;10.90;99.90
1992;DHT22;997;48.448;8.924;2023-11-19T20:00:01;10.80;99.90
1992;DHT22;997;48.448;8.924;2023-11-19T20:02:26;10.70;99.90
1992;DHT22;997;48.448;8.924;2023-11-19T20:04:54;10.80;99.90
1992;DHT22;997;48.448;8.924;2023-11-19T20:07:20;10.90;99.90
1992;DHT22;997;48.448;8.924;2023-11-19T20:09:46;11.00;99.90
1992;DHT22;997;48.448;8.924;2023-11-19T20:12:12;11.10;99.90
1992;DHT22;997;48.448;8.924;2023-11-19T20:14:37;11.20;99.90
1992;DHT22;997;48.448;8.924;2023-11-19T20:17:04;11.30;99.90
1992;DHT22;997;48.448;8.924;2023-11-19T20:19:30;11.30;99.90
1992;DHT22;997;48.448;8.924;2023-11-19T20:21:55;11.40;99.90
1992;DHT22;997;48.448;8.924;2023-11-19T20:24:21;11.40;99.90
1992;DHT22;997;48.448;8.924;2023-11-19T20:26:47;11.40;99.90
1992;DHT22;997;48.448;8.924;2023-11-19T20:29:18;11.50;99.90
1992;DHT22;997;48.448;8.924;2023-11-19T20:31:44;11.50;99.90
1992;DHT22;997;48.448;8.924;2023-11-19T20:34:10;11.50;99.90
1992;DHT22;997;48.448;8.924;2023-11-19T20:36:35;11.50;99.90
1992;DHT22;997;48.448;8.924;2023-11-19T20:39:01;11.50;99.90
1992;DHT22;997;48.448;8.924;2023-11-19T20:41:27;11.50;99.90
1992;DHT22;997;48.448;8.924;2023-11-19T20:43:56;11.40;99.90
1992;DHT22;997;48.448;8.924;2023-11-19T20:46:22;11.40;99.90
1992;DHT22;997;48.448;8.924;2023-11-19T20:48:48;11.40;99.90
1992;DHT22;997;48.448;8.924;2023-11-19T20:51:15;11.40;99.90
1992;DHT22;997;48.448;8.924;2023-11-19T20:53:41;11.40;99.90
1992;DHT22;997;48.448;8.924;2023-11-19T20:56:07;11.50;99.90
1992;DHT22;997;48.448;8.924;2023-11-19T20:58:33;11.40;99.90
1992;DHT22;997;48.448;8.924;2023-11-19T21:01:00;11.50;99.90
1992;DHT22;997;48.448;8.924;2023-11-19T21:03:28;11.50;99.90
1992;DHT22;997;48.448;8.924;2023-11-19T21:05:54;11.40;99.90
1992;DHT22;997;48.448;8.924;2023-11-19T21:08:23;11.30;99.90
1992;DHT22;997;48.448;8.924;2023-11-19T21:10:49;11.30;99.90
1992;DHT22;997;48.448;8.924;2023-11-19T21:13:17;11.20;99.90
1992;DHT22;997;48.448;8.924;2023-11-19T21:15:43;11.30;99.90
1992;DHT22;997;48.448;8.924;2023-11-19T21:18:12;11.30;99.90
1992;DHT22;997;48.448;8.924;2023-11-19T21:20:38;11.30;99.90
1992;DHT22;997;48.448;8.924;2023-11-19T21:23:08;11.40;99.90
1992;DHT22;997;48.448;8.924;2023-11-19T21:25:33;11.50;99.90
1992;DHT22;997;48.448;8.924;2023-11-19T21:27:59;11.50;99.90
1992;DHT22;997;48.448;8.924;2023-11-19T21:30:25;11.50;99.90
1992;DHT22;997;48.448;8.924;2023-11-19T21:32:51;11.50;99.90
1992;DHT22;997;48.448;8.924;2023-11-19T21:35:17;11.50;99.90
1992;DHT22;997;48.448;8.924;2023-11-19T21:37:43;11.50;99.90
1992;DHT22;997;48.448;8.924;2023-11-19T21:40:09;11.50;99.90
1992;DHT22;997;48.448;8.924;2023-11-19T21:42:35;11.40;99.90
1992;DHT22;997;48.448;8.924;2023-11-19T21:45:02;11.40;99.90
1992;DHT22;997;48.448;8.924;2023-11-19T21:47:28;11.30;99.90
1992;DHT22;997;48.448;8.924;2023-11-19T21:49:54;11.30;99.90
1992;DHT22;997;48.448;8.924;2023-11-19T21:52:20;11.30;99.90
1992;DHT22;997;48.448;8.924;2023-11-19T21:54:46;11.20;99.90
1992;DHT22;997;48.448;8.924;2023-11-19T21:57:11;11.20;99.90
1992;DHT22;997;48.448;8.924;2023-11-19T21:59:37;11.20;99.90
1992;DHT22;997;48.448;8.924;2023-11-19T22:02:05;11.20;99.90
1992;DHT22;997;48.448;8.924;2023-11-19T22:04:34;11.20;99.90
1992;DHT22;997;48.448;8.924;2023-11-19T22:06:59;11.10;99.90
1992;DHT22;997;48.448;8.924;2023-11-19T22:09:25;11.10;99.90
1992;DHT22;997;48.448;8.924;2023-11-19T22:11:51;11.10;99.90
1992;DHT22;997;48.448;8.924;2023-11-19T22:14:16;11.10;99.90
1992;DHT22;997;48.448;8.924;2023-11-19T22:16:42;11.20;99.90
1992;DHT22;997;48.448;8.924;2023-11-19T22:19:08;11.20;99.90
1992;DHT22;997;48.448;8.924;2023-11-19T22:21:33;11.20;99.90
1992;DHT22;997;48.448;8.924;2023-11-19T22:24:00;11.20;99.90
1992;DHT22;997;48.448;8.924;2023-11-19T22:26:26;11.20;99.90
1992;DHT22;997;48.448;8.924;2023-11-19T22:28:52;11.20;99.90
1992;DHT22;997;48.448;8.924;2023-11-19T22:31:18;11.30;99.90
1992;DHT22;997;48.448;8.924;2023-11-19T22:33:43;11.30;99.90
1992;DHT22;997;48.448;8.924;2023-11-19T22:36:09;11.30;99.90
1992;DHT22;997;48.448;8.924;2023-11-19T22:38:36;11.30;99.90
1992;DHT22;997;48.448;8.924;2023-11-19T22:41:01;11.30;99.90
1992;DHT22;997;48.448;8.924;2023-11-19T22:43:27;11.30;99.90
1992;DHT22;997;48.448;8.924;2023-11-19T22:45:53;11.30;99.90
1992;DHT22;997;48.448;8.924;2023-11-19T22:48:19;11.30;99.90
1992;DHT22;997;48.448;8.924;2023-11-19T22:50:44;11.30;99.90
1992;DHT22;997;48.448;8.924;2023-11-19T22:53:11;11.30;99.90
1992;DHT22;997;48.448;8.924;2023-11-19T22:55:36;11.40;99.90
1992;DHT22;997;48.448;8.924;2023-11-19T22:58:03;11.50;99.90
1992;DHT22;997;48.448;8.924;2023-11-19T23:00:29;11.50;99.90
1992;DHT22;997;48.448;8.924;2023-11-19T23:02:56;11.60;99.90
1992;DHT22;997;48.448;8.924;2023-11-19T23:05:25;11.60;99.90
1992;DHT22;997;48.448;8.924;2023-11-19T23:07:55;11.40;99.90
1992;DHT22;997;48.448;8.924;2023-11-19T23:10:21;11.30;99.90
1992;DHT22;997;48.448;8.924;2023-11-19T23:12:48;11.20;99.90
1992;DHT22;997;48.448;8.924;2023-11-19T23:15:13;11.30;99.90
1992;DHT22;997;48.448;8.924;2023-11-19T23:17:43;11.40;99.90
1992;DHT22;997;48.448;8.924;2023-11-19T23:20:10;11.40;99.90
1992;DHT22;997;48.448;8.924;2023-11-19T23:22:40;11.50;99.90
1992;DHT22;997;48.448;8.924;2023-11-19T23:25:06;11.50;99.90
1992;DHT22;997;48.448;8.924;2023-11-19T23:27:33;11.50;99.90
1992;DHT22;997;48.448;8.924;2023-11-19T23:29:58;11.40;99.90
1992;DHT22;997;48.448;8.924;2023-11-19T23:32:24;11.50;99.90
1992;DHT22;997;48.448;8.924;2023-11-19T23:34:50;11.40;99.90
1992;DHT22;997;48.448;8.924;2023-11-19T23:37:16;11.40;99.90
1992;DHT22;997;48.448;8.924;2023-11-19T23:39:41;11.40;99.90
1992;DHT22;997;48.448;8.924;2023-11-19T23:42:07;11.40;99.90
1992;DHT22;997;48.448;8.924;2023-11-19T23:44:32;11.30;99.90
1992;DHT22;997;48.448;8.924;2023-11-19T23:46:58;11.30;99.90
1992;DHT22;997;48.448;8.924;2023-11-19T23:49:24;11.40;99.90
1992;DHT22;997;48.448;8.924;2023-11-19T23:51:50;11.30;99.90
1992;DHT22;997;48.448;8.924;2023-11-19T23:54:16;11.20;99.90
1992;DHT22;997;48.448;8.924;2023-11-19T23:56:42;11.20;99.90
1992;DHT22;997;48.448;8.924;2023-11-19T23:59:08;11.10;99.90
